KMDT/MDT METAR and TAF weather

Enter ICAO airport designator
Station Type Date Time Source
KMDT METAR 2019/12/08 10:56 UTC NOAA

KMDT 081056Z 09003KT 10SM CLR M05/M08 A3049 RMK AO2 SLP329 T10501083


Station Type Date Time Source
KMDT Decoded METAR 2019/12/08 10:56 UTC NOAA

HARRISBURG INTERNATIONAL AIRPORT, PA, United States (KMDT) 40-12N 076-46W 95M
Dec 08, 2019 - 05:56 AM EST / 2019.12.08 1056 UTC
Wind: from the E (090 degrees) at 3 MPH (3 KT):0
Visibility: 10 mile(s):0
Sky conditions: clear
Temperature: 23.0 F (-5.0 C)
Dew Point: 17.1 F (-8.3 C)
Relative Humidity: 77%
Pressure (altimeter): 30.49 in. Hg (1032 hPa)
ob: KMDT 081056Z 09003KT 10SM CLR M05/M08 A3049 RMK AO2 SLP329 T10501083
cycle: 11

Station Type Date Time Source
KMDT TAF 2019/12/08 12:22 UTC NOAA

TAF KMDT 081120Z 0812/0912 08003KT P6SM SCT250
FM081500 15007KT P6SM BKN250
FM090000 14003KT P6SM SCT050 BKN120

Example: see airport list